Hauptseite
METAR-TAF:

METAR-TAF

Flughäfen :

Fliegerhorst Lechfeld

Lechfeld, Deutschland

Breite: 48-11N, Länge: 010-52E, Höhe: 555 m

Beobachtung

Neuester Wetterbericht von vor 44 Minuten, um 15:20 UTC
Wind 11 kt aus Nordost
Temperatur 21°C
Luftfeuchtigkeit 64%
Luftdruck 1024 hPa
Sichtweite 10 km oder mehr

METAR: ETSL 231520Z AUTO 05011KT 9999 // ////// 21/14 Q1024 ///

Zeit: 18:04 (16:04 UTC)

Prognose

Neuester Wetterbericht von vor 6 Stunden und 9 Minuten, um 09:55 UTC
Gültige Prognose vom 23 um 09 UTC bis 23 um 17 UTC
Wind 8 kt aus Ost/Nordost
Sichtweite: 1020 m
Aufgelockert bewölkt in der Höhe von 4000 ft

TAF: ETSL 230955Z 2309/2317 06008KT 9999 NSW SCT040 CANCEL 1020 BY ETGL

Wetterbeobachtungen und Prognosen von mehr als 4000 Flughäfen (METAR und TAF Bericht).

Die verfügbaren Stationen werden durch gelbe und rote Markierungen auf der Karte dargestellt.

Führen Sie die Maus auf sie, um den Namen der Station zu sehen.

Darauf klicken, um die Beobachtung von Wetterbeobachtungen und Prognosen zu sehen.

Um die Karte zu ändern : klicken Sie auf den grünen Tasten mit einem schwarzen Kreuz Zum Vergrößern, auf den grünen Button mit einem Gedankenstrich zu verkleinern, oder auf die grünen Pfeile für benachbarte Karten.


METAR-TAF: